createdAt,value
2019-03-22T00:00:34.507Z,11.49
2019-03-22T00:03:02.486Z,11.52
2019-03-22T00:05:30.290Z,11.54
2019-03-22T00:07:58.143Z,11.53
2019-03-22T00:10:26.056Z,11.49
2019-03-22T00:12:53.955Z,11.53
2019-03-22T00:15:21.872Z,11.54
2019-03-22T00:17:49.704Z,11.54
2019-03-22T00:20:17.567Z,11.55
2019-03-22T00:22:45.373Z,11.55
2019-03-22T00:25:13.163Z,11.53
2019-03-22T00:27:40.999Z,11.48
2019-03-22T00:30:09.003Z,11.53
2019-03-22T00:32:36.914Z,11.54
2019-03-22T00:35:05.782Z,11.55
2019-03-22T00:37:33.605Z,11.53
2019-03-22T00:40:01.435Z,11.50
2019-03-22T00:42:29.299Z,11.50
2019-03-22T00:44:57.092Z,11.51
2019-03-22T00:47:25.173Z,11.47
2019-03-22T00:49:53.004Z,11.47
2019-03-22T00:52:20.820Z,11.47
2019-03-22T00:54:48.655Z,11.45
2019-03-22T00:57:27.693Z,11.43
2019-03-22T00:59:46.161Z,11.42
2019-03-22T01:02:14.042Z,11.36
2019-03-22T01:04:41.835Z,11.30
2019-03-22T01:07:09.707Z,11.18
2019-03-22T01:09:37.505Z,11.26
2019-03-22T01:12:05.347Z,11.28
2019-03-22T01:14:33.207Z,11.20
2019-03-22T01:17:01.050Z,11.22
2019-03-22T01:19:28.839Z,11.19
2019-03-22T01:21:56.669Z,11.15
2019-03-22T01:24:24.468Z,11.14
2019-03-22T01:26:52.269Z,11.07
2019-03-22T01:29:20.138Z,11.03
2019-03-22T01:31:47.948Z,10.94
2019-03-22T01:34:15.760Z,10.87
2019-03-22T01:36:43.615Z,10.86
2019-03-22T01:39:11.423Z,10.93
2019-03-22T01:41:39.267Z,10.92
2019-03-22T01:44:07.103Z,10.99
2019-03-22T01:46:34.917Z,10.99
2019-03-22T01:49:02.802Z,10.96
2019-03-22T01:51:30.607Z,11.01
2019-03-22T01:53:58.394Z,11.05
2019-03-22T01:56:26.235Z,11.10
2019-03-22T01:58:54.026Z,11.07
2019-03-22T02:01:21.906Z,11.09
2019-03-22T02:03:49.714Z,11.02
2019-03-22T02:06:17.541Z,10.98
2019-03-22T02:08:45.324Z,10.97
2019-03-22T02:11:13.155Z,10.96
2019-03-22T02:13:40.962Z,10.87
2019-03-22T02:16:08.865Z,10.87
2019-03-22T02:18:36.955Z,10.76
2019-03-22T02:21:04.794Z,10.80
2019-03-22T02:23:32.601Z,10.78
2019-03-22T02:26:00.417Z,10.61
2019-03-22T02:28:28.204Z,10.63
2019-03-22T02:30:56.029Z,10.56
2019-03-22T02:33:23.837Z,10.62
2019-03-22T02:35:51.640Z,10.46
2019-03-22T02:38:19.412Z,10.59
2019-03-22T02:40:47.263Z,10.57
2019-03-22T02:43:15.170Z,10.66
2019-03-22T02:45:42.956Z,10.51
2019-03-22T02:48:10.783Z,10.51
2019-03-22T02:50:38.707Z,10.66
2019-03-22T02:53:06.532Z,10.70
2019-03-22T02:55:34.371Z,10.66
2019-03-22T02:58:02.179Z,10.65
2019-03-22T03:00:29.964Z,10.73
2019-03-22T03:02:57.815Z,10.73
2019-03-22T03:05:25.721Z,10.67
2019-03-22T03:07:53.545Z,10.66
2019-03-22T03:10:21.358Z,10.72
2019-03-22T03:12:49.186Z,10.75
2019-03-22T03:15:17.730Z,10.74
2019-03-22T03:17:45.738Z,10.66
2019-03-22T03:20:14.715Z,10.67
2019-03-22T03:22:42.599Z,10.67
2019-03-22T03:25:10.796Z,10.74
2019-03-22T03:27:38.584Z,10.75
2019-03-22T03:30:10.101Z,10.75
2019-03-22T03:32:37.950Z,10.72
2019-03-22T03:35:06.247Z,10.67
2019-03-22T03:37:34.077Z,10.70
2019-03-22T03:40:01.869Z,10.66
2019-03-22T03:42:29.761Z,10.68
2019-03-22T03:44:57.588Z,10.68
2019-03-22T03:47:25.412Z,10.69
2019-03-22T03:49:53.268Z,10.69
2019-03-22T03:52:21.095Z,10.82
2019-03-22T03:54:48.932Z,10.82
2019-03-22T03:57:16.706Z,10.85
2019-03-22T03:59:44.534Z,10.88
2019-03-22T04:02:12.376Z,10.90
2019-03-22T04:04:40.238Z,10.88
2019-03-22T04:07:08.052Z,10.86
2019-03-22T04:09:35.820Z,10.86
2019-03-22T04:12:03.664Z,10.84
2019-03-22T04:14:31.457Z,10.77
2019-03-22T04:16:59.298Z,10.79
2019-03-22T04:19:27.121Z,10.67
2019-03-22T04:21:54.945Z,10.65
2019-03-22T04:24:22.762Z,10.75
2019-03-22T04:26:50.626Z,10.76
2019-03-22T04:29:18.416Z,10.76
2019-03-22T04:31:46.211Z,10.77
2019-03-22T04:34:14.099Z,10.85
2019-03-22T04:36:41.916Z,10.85
2019-03-22T04:39:09.693Z,10.74
2019-03-22T04:41:37.529Z,10.69
2019-03-22T04:44:05.395Z,10.69
2019-03-22T04:46:34.090Z,10.68
2019-03-22T04:49:02.068Z,10.72
2019-03-22T04:51:30.597Z,10.75
2019-03-22T04:54:03.132Z,10.78
2019-03-22T04:56:33.527Z,10.80
2019-03-22T04:59:04.224Z,10.75
2019-03-22T05:01:33.005Z,10.75
2019-03-22T05:04:02.669Z,10.75
2019-03-22T05:06:31.972Z,10.79
2019-03-22T05:09:00.654Z,10.88
2019-03-22T05:11:29.166Z,10.88
2019-03-22T05:14:00.506Z,10.90
2019-03-22T05:16:29.571Z,10.92
2019-03-22T05:19:00.165Z,10.93
2019-03-22T05:21:29.272Z,10.96
2019-03-22T05:24:01.124Z,10.97
2019-03-22T05:26:30.696Z,10.96
2019-03-22T05:28:59.427Z,10.96
2019-03-22T05:31:39.110Z,10.99
2019-03-22T05:34:06.975Z,10.99
2019-03-22T05:36:34.769Z,11.00
2019-03-22T05:39:04.705Z,10.98
2019-03-22T05:41:32.525Z,11.01
2019-03-22T05:44:00.348Z,11.00
2019-03-22T05:46:28.175Z,11.00
2019-03-22T05:48:56.138Z,11.03
2019-03-22T05:51:23.970Z,11.04
2019-03-22T05:53:51.796Z,11.05
2019-03-22T05:56:19.613Z,11.02
2019-03-22T05:58:47.414Z,10.98
2019-03-22T06:01:15.260Z,10.98
2019-03-22T06:03:43.097Z,10.99
2019-03-22T06:06:10.975Z,10.98
2019-03-22T06:08:38.830Z,10.98
2019-03-22T06:11:06.654Z,10.94
2019-03-22T06:13:34.537Z,11.00
2019-03-22T06:16:02.369Z,11.04
2019-03-22T06:18:30.168Z,11.07
2019-03-22T06:20:57.996Z,11.05
2019-03-22T06:23:25.791Z,11.05
2019-03-22T06:25:53.598Z,11.05
2019-03-22T06:28:21.399Z,11.13
2019-03-22T06:30:49.167Z,11.06
2019-03-22T06:33:17.000Z,11.10
2019-03-22T06:35:44.776Z,11.14
2019-03-22T06:38:12.544Z,11.15
2019-03-22T06:40:40.405Z,11.15
2019-03-22T06:43:08.185Z,11.16
2019-03-22T06:45:35.987Z,11.19
2019-03-22T06:48:03.956Z,11.15
2019-03-22T06:50:38.211Z,11.19
2019-03-22T06:53:06.001Z,11.18
2019-03-22T06:55:33.878Z,11.21
2019-03-22T06:58:01.732Z,11.18
2019-03-22T07:00:29.542Z,11.19
2019-03-22T07:02:57.438Z,11.19
2019-03-22T07:05:25.269Z,11.16
2019-03-22T07:07:53.087Z,11.16
2019-03-22T07:10:21.026Z,11.19
2019-03-22T07:12:48.836Z,11.19
2019-03-22T07:15:16.661Z,11.16
2019-03-22T07:17:44.494Z,11.20
2019-03-22T07:20:12.549Z,11.22
2019-03-22T07:22:40.706Z,11.17
2019-03-22T07:25:10.144Z,11.16
2019-03-22T07:27:37.982Z,11.20
2019-03-22T07:30:17.612Z,11.21
2019-03-22T07:32:36.167Z,11.26
2019-03-22T07:35:04.780Z,11.25
2019-03-22T07:37:32.581Z,11.25
2019-03-22T07:40:00.403Z,11.17
2019-03-22T07:42:28.242Z,11.17
2019-03-22T07:44:56.039Z,11.25
2019-03-22T07:47:23.838Z,11.24
2019-03-22T07:49:51.703Z,11.21
2019-03-22T07:52:19.589Z,11.28
2019-03-22T07:54:47.441Z,11.03
2019-03-22T07:57:15.221Z,11.25
2019-03-22T07:59:43.031Z,11.29
2019-03-22T08:02:10.865Z,11.30
2019-03-22T08:04:38.820Z,11.26
2019-03-22T08:07:06.651Z,11.32
2019-03-22T08:09:34.498Z,11.32
2019-03-22T08:12:02.351Z,11.20
2019-03-22T08:14:30.350Z,11.23
2019-03-22T08:17:00.848Z,11.20
2019-03-22T08:19:28.717Z,11.17
2019-03-22T08:21:56.541Z,11.20
2019-03-22T08:24:24.392Z,11.28
2019-03-22T08:26:52.284Z,11.36
2019-03-22T08:29:20.068Z,11.27
2019-03-22T08:31:47.887Z,11.27
2019-03-22T08:34:15.679Z,11.25
2019-03-22T08:36:43.496Z,11.41
2019-03-22T08:39:11.316Z,11.42
2019-03-22T08:41:39.176Z,11.34
2019-03-22T08:44:06.979Z,11.34
2019-03-22T08:46:34.867Z,11.33
2019-03-22T08:49:02.873Z,11.32
2019-03-22T08:51:30.735Z,11.25
2019-03-22T08:53:58.551Z,11.29
2019-03-22T08:56:26.352Z,11.32
2019-03-22T08:58:54.214Z,11.39
2019-03-22T09:01:22.128Z,11.50
2019-03-22T09:03:49.958Z,11.54
2019-03-22T09:06:17.744Z,11.56
2019-03-22T09:08:47.778Z,11.58
2019-03-22T09:11:18.026Z,11.71
2019-03-22T09:13:45.132Z,11.80
2019-03-22T09:16:13.011Z,11.88
2019-03-22T09:18:40.927Z,11.95
2019-03-22T09:21:08.900Z,11.88
2019-03-22T09:23:36.703Z,11.88
2019-03-22T09:26:04.461Z,11.90
2019-03-22T09:28:32.299Z,11.97
2019-03-22T09:31:09.767Z,12.10
2019-03-22T09:33:29.815Z,12.13
2019-03-22T09:35:57.787Z,12.08
2019-03-22T09:38:28.445Z,12.16
2019-03-22T09:40:55.363Z,12.27
2019-03-22T09:43:23.217Z,12.24
2019-03-22T09:45:51.122Z,12.24
2019-03-22T09:48:18.928Z,12.37
2019-03-22T09:50:46.703Z,12.41
2019-03-22T09:53:14.588Z,12.43
2019-03-22T09:55:42.407Z,12.41
2019-03-22T09:58:10.271Z,12.37
2019-03-22T10:00:38.180Z,12.50
2019-03-22T10:03:07.098Z,12.45
2019-03-22T10:05:37.634Z,12.55
2019-03-22T10:08:05.500Z,12.69
2019-03-22T10:10:33.502Z,12.69
2019-03-22T10:13:02.605Z,12.71
2019-03-22T10:15:30.407Z,12.79
2019-03-22T10:17:58.223Z,12.72
2019-03-22T10:20:26.080Z,12.76
2019-03-22T10:22:53.909Z,12.85
2019-03-22T10:25:21.914Z,12.85
2019-03-22T10:27:49.791Z,12.93
2019-03-22T10:30:18.087Z,12.67
2019-03-22T10:32:45.903Z,12.87
2019-03-22T10:35:25.572Z,13.03
2019-03-22T10:37:43.645Z,13.12
2019-03-22T10:40:11.560Z,13.11
2019-03-22T10:42:39.461Z,13.24
2019-03-22T10:45:07.899Z,13.14
2019-03-22T10:47:35.771Z,13.11
2019-03-22T10:50:04.270Z,13.31
2019-03-22T10:52:32.085Z,13.46
2019-03-22T10:55:17.496Z,13.57
2019-03-22T10:57:29.623Z,13.52
2019-03-22T10:59:57.503Z,13.75
2019-03-22T11:02:25.388Z,13.62
2019-03-22T11:04:53.201Z,13.82
2019-03-22T11:07:21.158Z,13.95
2019-03-22T11:09:51.793Z,14.08
2019-03-22T11:12:19.561Z,14.20
2019-03-22T11:14:47.418Z,14.31
2019-03-22T11:17:15.205Z,14.31
2019-03-22T11:19:43.073Z,14.47
2019-03-22T11:22:14.409Z,14.34
2019-03-22T11:24:42.229Z,14.39
2019-03-22T11:27:13.916Z,14.53
2019-03-22T11:29:41.684Z,14.65
2019-03-22T11:32:12.779Z,14.79
2019-03-22T11:34:39.258Z,14.91
2019-03-22T11:37:07.850Z,14.95
2019-03-22T11:39:35.779Z,15.03
2019-03-22T11:42:03.561Z,14.85
2019-03-22T11:44:31.493Z,15.08
2019-03-22T11:46:59.351Z,15.15
2019-03-22T11:49:27.160Z,15.25
2019-03-22T11:51:55.008Z,15.35
2019-03-22T11:54:22.841Z,15.37
2019-03-22T11:56:50.645Z,15.41
2019-03-22T11:59:18.446Z,15.42
2019-03-22T12:01:46.249Z,15.58
2019-03-22T12:04:16.813Z,15.69
2019-03-22T12:06:44.635Z,15.67
2019-03-22T12:09:12.388Z,15.75
2019-03-22T12:11:42.083Z,15.85
2019-03-22T12:14:09.922Z,15.92
2019-03-22T12:16:37.780Z,15.91
2019-03-22T12:19:05.710Z,15.99
2019-03-22T12:21:33.462Z,16.03
2019-03-22T12:24:01.314Z,16.08
2019-03-22T12:26:29.199Z,16.13
2019-03-22T12:28:57.029Z,16.23
2019-03-22T12:31:24.807Z,16.30
2019-03-22T12:33:52.616Z,16.31
2019-03-22T12:36:20.427Z,16.44
2019-03-22T12:38:48.202Z,16.56
2019-03-22T12:41:16.019Z,16.48
2019-03-22T12:43:43.826Z,16.60
2019-03-22T12:46:11.596Z,16.64
2019-03-22T12:48:39.389Z,16.71
2019-03-22T12:51:07.267Z,16.78
2019-03-22T12:53:35.098Z,16.83
2019-03-22T12:56:03.224Z,16.95
2019-03-22T12:58:31.037Z,16.95
2019-03-22T13:00:59.140Z,17.02
2019-03-22T13:03:26.998Z,17.07
2019-03-22T13:05:54.808Z,17.03
2019-03-22T13:08:22.580Z,17.17
2019-03-22T13:10:50.402Z,17.28
2019-03-22T13:13:18.200Z,17.15
2019-03-22T13:15:46.001Z,17.39
2019-03-22T13:18:13.860Z,17.35
2019-03-22T13:20:41.698Z,17.38
2019-03-22T13:23:09.469Z,17.28
2019-03-22T13:25:37.327Z,17.27
2019-03-22T13:28:05.091Z,17.35
2019-03-22T13:30:34.539Z,17.43
2019-03-22T13:33:02.669Z,17.40
2019-03-22T13:35:30.525Z,17.46
2019-03-22T13:37:58.321Z,17.47
2019-03-22T13:40:26.138Z,17.56
2019-03-22T13:42:54.047Z,17.50
2019-03-22T13:45:21.933Z,17.68
2019-03-22T13:47:49.786Z,17.60
2019-03-22T13:50:17.573Z,17.69
2019-03-22T13:52:45.395Z,17.79
2019-03-22T13:55:13.306Z,17.74
2019-03-22T13:57:41.118Z,17.84
2019-03-22T14:00:09.128Z,17.87
2019-03-22T14:02:37.610Z,17.79
2019-03-22T14:05:06.144Z,17.77
2019-03-22T14:07:33.896Z,17.95
2019-03-22T14:10:02.039Z,17.98
2019-03-22T14:12:37.070Z,17.89
2019-03-22T14:14:59.794Z,17.94
2019-03-22T14:17:27.726Z,17.99
2019-03-22T14:19:55.578Z,18.04
2019-03-22T14:22:23.395Z,18.09
2019-03-22T14:24:51.218Z,18.06
2019-03-22T14:27:19.024Z,18.04
2019-03-22T14:29:46.843Z,18.14
2019-03-22T14:32:14.601Z,18.16
2019-03-22T14:34:42.546Z,18.19
2019-03-22T14:37:10.362Z,18.12
2019-03-22T14:39:38.341Z,17.95
2019-03-22T14:42:06.347Z,17.99
2019-03-22T14:44:34.245Z,17.94
2019-03-22T14:47:02.111Z,17.94
2019-03-22T14:49:29.951Z,18.10
2019-03-22T14:51:57.807Z,18.04
2019-03-22T14:54:25.569Z,18.00
2019-03-22T14:56:53.453Z,17.99
2019-03-22T14:59:22.209Z,17.81
2019-03-22T15:01:50.080Z,17.94
2019-03-22T15:04:17.879Z,17.88
2019-03-22T15:06:45.743Z,17.99
2019-03-22T15:09:13.551Z,17.95
2019-03-22T15:11:41.365Z,18.06
2019-03-22T15:14:19.557Z,17.89
2019-03-22T15:17:06.911Z,17.87
2019-03-22T15:20:09.262Z,17.99
2019-03-22T15:23:10.693Z,17.90
2019-03-22T15:25:58.040Z,17.89
2019-03-22T15:28:49.914Z,17.80
2019-03-22T15:31:45.321Z,17.71
2019-03-22T15:34:30.284Z,17.68
2019-03-22T15:40:05.004Z,17.66
2019-03-22T15:42:32.847Z,17.60
2019-03-22T15:45:00.854Z,17.56
2019-03-22T15:47:28.696Z,17.53
2019-03-22T15:49:56.504Z,17.52
2019-03-22T15:52:24.296Z,17.58
2019-03-22T15:54:52.115Z,17.46
2019-03-22T15:57:19.917Z,17.52
2019-03-22T15:59:47.735Z,17.66
2019-03-22T16:02:15.625Z,17.40
2019-03-22T16:04:43.471Z,17.39
2019-03-22T16:07:11.337Z,17.40
2019-03-22T16:09:45.281Z,17.61
2019-03-22T16:12:13.078Z,17.48
2019-03-22T16:14:40.893Z,17.46
2019-03-22T16:17:08.689Z,17.52
2019-03-22T16:19:36.568Z,17.39
2019-03-22T16:22:05.538Z,17.49
2019-03-22T16:24:33.360Z,17.50
2019-03-22T16:27:01.146Z,17.40
2019-03-22T16:29:29.025Z,17.46
2019-03-22T16:31:56.878Z,17.54
2019-03-22T16:34:24.831Z,17.54
2019-03-22T16:36:52.620Z,17.46
2019-03-22T16:39:20.417Z,17.39
2019-03-22T16:41:48.220Z,17.37
2019-03-22T16:44:16.052Z,17.38
2019-03-22T16:46:43.875Z,17.27
2019-03-22T16:49:11.800Z,17.31
2019-03-22T16:51:39.651Z,17.21
2019-03-22T16:54:07.489Z,17.18
2019-03-22T16:56:35.351Z,17.07
2019-03-22T16:59:03.226Z,17.12
2019-03-22T17:01:30.999Z,17.15
2019-03-22T17:04:04.435Z,17.08
2019-03-22T17:06:28.976Z,17.09
2019-03-22T17:08:56.780Z,17.11
2019-03-22T17:11:24.649Z,16.72
2019-03-22T17:13:52.439Z,16.37
2019-03-22T17:16:20.264Z,16.08
2019-03-22T17:18:48.271Z,15.46
2019-03-22T17:21:16.233Z,15.02
2019-03-22T17:23:44.048Z,14.55
2019-03-22T17:26:12.126Z,14.00
2019-03-22T17:28:39.953Z,13.56
2019-03-22T17:31:07.784Z,13.18
2019-03-22T17:33:35.602Z,13.01
2019-03-22T17:36:04.063Z,12.61
2019-03-22T17:38:32.201Z,12.49
2019-03-22T17:41:00.074Z,12.40
2019-03-22T17:43:27.941Z,12.38
2019-03-22T17:45:55.807Z,12.33
2019-03-22T17:48:23.658Z,12.44
2019-03-22T17:50:51.479Z,12.40
2019-03-22T17:53:19.325Z,12.33
2019-03-22T17:55:47.165Z,12.04
2019-03-22T17:58:15.023Z,11.96
2019-03-22T18:00:43.134Z,12.04
2019-03-22T18:03:10.956Z,12.13
2019-03-22T18:05:38.783Z,11.89
2019-03-22T18:08:06.594Z,11.83
2019-03-22T18:10:34.442Z,11.93
2019-03-22T18:13:02.276Z,11.76
2019-03-22T18:15:30.176Z,11.52
2019-03-22T18:17:58.023Z,11.68
2019-03-22T18:20:25.881Z,11.73
2019-03-22T18:22:53.759Z,11.67
2019-03-22T18:25:21.586Z,11.72
2019-03-22T18:27:49.429Z,11.64
2019-03-22T18:30:17.383Z,11.57
2019-03-22T18:32:45.284Z,11.51
2019-03-22T18:35:13.291Z,11.31
2019-03-22T18:37:41.123Z,11.25
2019-03-22T18:40:09.319Z,11.20
2019-03-22T18:42:37.283Z,11.37
2019-03-22T18:45:06.616Z,11.37
2019-03-22T18:47:34.413Z,11.49
2019-03-22T18:50:02.255Z,11.55
2019-03-22T18:52:30.083Z,11.63
2019-03-22T18:54:57.865Z,11.64
2019-03-22T18:57:25.668Z,11.57
2019-03-22T18:59:53.490Z,11.54
2019-03-22T19:02:21.400Z,11.12
2019-03-22T19:04:49.261Z,10.99
2019-03-22T19:07:17.079Z,10.83
2019-03-22T19:09:44.910Z,10.85
2019-03-22T19:12:12.705Z,11.00
2019-03-22T19:14:40.593Z,11.09
2019-03-22T19:17:08.384Z,11.14
2019-03-22T19:19:36.210Z,11.07
2019-03-22T19:22:04.050Z,10.91
2019-03-22T19:24:31.900Z,10.94
2019-03-22T19:26:59.810Z,10.94
2019-03-22T19:29:27.607Z,11.02
2019-03-22T19:31:55.427Z,11.06
2019-03-22T19:34:23.273Z,10.95
2019-03-22T19:36:51.181Z,11.01
2019-03-22T19:39:19.051Z,11.01
2019-03-22T19:41:46.884Z,11.01
2019-03-22T19:44:15.572Z,10.93
2019-03-22T19:46:43.888Z,10.93
2019-03-22T19:49:11.861Z,10.83
2019-03-22T19:51:40.586Z,10.66
2019-03-22T19:54:08.673Z,10.56
2019-03-22T19:56:36.569Z,10.68
2019-03-22T19:59:04.360Z,10.67
2019-03-22T20:01:32.223Z,10.58
2019-03-22T20:04:00.061Z,10.43
2019-03-22T20:06:27.878Z,10.43
2019-03-22T20:08:55.807Z,10.45
2019-03-22T20:11:23.754Z,10.47
2019-03-22T20:13:51.622Z,10.16
2019-03-22T20:16:19.625Z,10.16
2019-03-22T20:18:47.474Z,10.23
2019-03-22T20:21:15.264Z,10.21
2019-03-22T20:23:53.078Z,10.28
2019-03-22T20:26:12.936Z,10.28
2019-03-22T20:28:40.768Z,10.32
2019-03-22T20:31:08.590Z,10.27
2019-03-22T20:33:39.275Z,10.17
2019-03-22T20:36:07.107Z,10.15
2019-03-22T20:38:34.902Z,10.15
2019-03-22T20:41:02.728Z,10.04
2019-03-22T20:43:33.173Z,10.18
2019-03-22T20:46:01.072Z,10.29
2019-03-22T20:48:28.917Z,10.19
2019-03-22T20:50:56.806Z,10.23
2019-03-22T20:53:24.692Z,10.23
2019-03-22T20:55:52.504Z,10.17
2019-03-22T20:58:20.354Z,10.17
2019-03-22T21:00:48.150Z,10.15
2019-03-22T21:03:15.991Z,10.10
2019-03-22T21:05:43.804Z,10.10
2019-03-22T21:08:11.749Z,9.99
2019-03-22T21:10:39.532Z,9.83
2019-03-22T21:13:07.309Z,9.88
2019-03-22T21:15:35.280Z,9.83
2019-03-22T21:18:03.171Z,9.77
2019-03-22T21:20:31.007Z,9.80
2019-03-22T21:22:58.885Z,9.77
2019-03-22T21:25:26.630Z,9.51
2019-03-22T21:27:54.482Z,9.48
2019-03-22T21:30:22.599Z,9.51
2019-03-22T21:32:50.503Z,9.51
2019-03-22T21:35:22.853Z,9.29
2019-03-22T21:37:48.304Z,9.13
2019-03-22T21:40:16.112Z,9.05
2019-03-22T21:42:46.294Z,8.99
2019-03-22T21:45:14.257Z,9.18
2019-03-22T21:47:42.039Z,9.10
2019-03-22T21:50:10.091Z,9.16
2019-03-22T21:52:40.725Z,9.25
2019-03-22T21:55:12.073Z,9.10
2019-03-22T21:57:39.823Z,9.18
2019-03-22T22:00:08.641Z,9.18
2019-03-22T22:02:39.282Z,8.98
2019-03-22T22:05:07.209Z,9.14
2019-03-22T22:07:34.991Z,9.14
2019-03-22T22:10:03.019Z,9.16
2019-03-22T22:12:30.810Z,9.01
2019-03-22T22:14:58.598Z,8.95
2019-03-22T22:17:26.459Z,8.97
2019-03-22T22:19:54.266Z,9.08
2019-03-22T22:22:22.193Z,9.14
2019-03-22T22:24:50.104Z,9.02
2019-03-22T22:27:17.893Z,9.07
2019-03-22T22:29:47.498Z,9.08
2019-03-22T22:32:15.411Z,9.14
2019-03-22T22:34:43.227Z,9.13
2019-03-22T22:37:11.072Z,9.13
2019-03-22T22:39:38.851Z,9.19
2019-03-22T22:42:06.723Z,9.35
2019-03-22T22:44:34.538Z,9.35
2019-03-22T22:47:02.355Z,9.41
2019-03-22T22:49:30.173Z,9.41
2019-03-22T22:51:57.988Z,9.39
2019-03-22T22:54:26.050Z,9.45
2019-03-22T22:56:53.864Z,9.57
2019-03-22T22:59:21.702Z,9.67
2019-03-22T23:01:49.534Z,9.74
2019-03-22T23:04:17.402Z,9.67
2019-03-22T23:06:45.244Z,9.65
2019-03-22T23:09:13.073Z,9.80
2019-03-22T23:11:40.867Z,9.77
2019-03-22T23:14:08.681Z,9.82
2019-03-22T23:16:36.677Z,9.82
2019-03-22T23:19:04.503Z,9.68
2019-03-22T23:21:32.330Z,9.89
2019-03-22T23:24:00.246Z,9.66
2019-03-22T23:26:28.056Z,9.70
2019-03-22T23:28:55.876Z,9.72
2019-03-22T23:31:23.776Z,9.72
2019-03-22T23:33:51.581Z,9.73
2019-03-22T23:36:20.452Z,9.69
2019-03-22T23:38:48.591Z,9.69
2019-03-22T23:41:16.476Z,9.65
2019-03-22T23:43:44.274Z,9.65
2019-03-22T23:46:12.075Z,9.69
2019-03-22T23:48:40.076Z,9.69
2019-03-22T23:51:07.948Z,9.83
2019-03-22T23:53:35.777Z,9.72
2019-03-22T23:56:03.632Z,9.79
2019-03-22T23:58:31.492Z,9.81
